createdAt,value
2016-10-15T00:00:17.713Z,0
2016-10-15T00:01:30.602Z,0
2016-10-15T00:02:44.050Z,0
2016-10-15T00:03:56.656Z,0
2016-10-15T00:05:10.123Z,0
2016-10-15T00:06:23.639Z,0
2016-10-15T00:07:36.635Z,0
2016-10-15T00:08:49.602Z,0
2016-10-15T00:10:01.410Z,0
2016-10-15T00:11:14.540Z,0
2016-10-15T00:12:27.602Z,0
2016-10-15T00:13:40.057Z,0
2016-10-15T00:14:52.062Z,0
2016-10-15T00:16:05.531Z,0
2016-10-15T00:17:17.481Z,0
2016-10-15T00:18:31.049Z,0
2016-10-15T00:19:44.017Z,0
2016-10-15T00:20:57.634Z,0
2016-10-15T00:22:10.631Z,0
2016-10-15T00:23:24.097Z,0
2016-10-15T00:24:37.529Z,0
2016-10-15T00:25:50.112Z,0
2016-10-15T00:27:03.049Z,0
2016-10-15T00:28:16.328Z,0
2016-10-15T00:29:28.706Z,0
2016-10-15T00:30:42.145Z,0
2016-10-15T00:31:55.588Z,0
2016-10-15T00:33:06.904Z,0
2016-10-15T00:34:19.287Z,0
2016-10-15T00:35:31.704Z,0
2016-10-15T00:36:45.280Z,0
2016-10-15T00:37:58.806Z,0
2016-10-15T00:39:10.685Z,0
2016-10-15T00:40:24.198Z,0
2016-10-15T00:41:37.924Z,0
2016-10-15T00:42:49.806Z,0
2016-10-15T00:44:02.204Z,0
2016-10-15T00:45:15.666Z,0
2016-10-15T00:46:28.890Z,0
2016-10-15T00:47:42.027Z,0
2016-10-15T00:48:55.002Z,0
2016-10-15T00:50:08.461Z,0
2016-10-15T00:51:21.908Z,0
2016-10-15T00:52:34.508Z,0
2016-10-15T00:53:46.999Z,0
2016-10-15T00:54:59.387Z,0
2016-10-15T00:56:12.413Z,0
2016-10-15T00:57:25.880Z,0
2016-10-15T00:58:37.849Z,0
2016-10-15T00:59:51.388Z,0
2016-10-15T01:01:03.823Z,0
2016-10-15T01:02:16.270Z,0
2016-10-15T01:03:29.259Z,0
2016-10-15T01:04:42.312Z,0
2016-10-15T01:05:54.155Z,0
2016-10-15T01:07:06.620Z,0
2016-10-15T01:08:18.539Z,0
2016-10-15T01:09:31.087Z,0
2016-10-15T01:10:44.019Z,0
2016-10-15T01:11:56.407Z,0
2016-10-15T01:13:09.378Z,0
2016-10-15T01:14:22.313Z,0
2016-10-15T01:15:35.306Z,0
2016-10-15T01:16:47.720Z,0
2016-10-15T01:18:00.613Z,0
2016-10-15T01:19:14.132Z,0
2016-10-15T01:20:27.193Z,0
2016-10-15T01:21:40.195Z,0
2016-10-15T01:22:52.602Z,0
2016-10-15T01:24:06.084Z,0
2016-10-15T01:25:18.983Z,0
2016-10-15T01:26:31.913Z,0
2016-10-15T01:27:44.888Z,0
2016-10-15T01:28:57.815Z,0
2016-10-15T01:30:10.771Z,0
2016-10-15T01:31:24.456Z,0
2016-10-15T01:32:36.908Z,0
2016-10-15T01:33:50.400Z,0
2016-10-15T01:35:03.379Z,0
2016-10-15T01:36:16.156Z,0
2016-10-15T01:37:29.671Z,0
2016-10-15T01:38:43.162Z,0
2016-10-15T01:39:56.656Z,0
2016-10-15T01:41:09.618Z,0
2016-10-15T01:42:23.257Z,0
2016-10-15T01:43:36.740Z,0
2016-10-15T01:44:49.693Z,0
2016-10-15T01:46:02.659Z,0
2016-10-15T01:47:16.197Z,0
2016-10-15T01:48:29.724Z,0
2016-10-15T01:49:42.670Z,0
2016-10-15T01:50:55.598Z,0
2016-10-15T01:52:09.151Z,0
2016-10-15T01:53:22.199Z,0
2016-10-15T01:54:35.662Z,0
2016-10-15T01:55:48.110Z,0
2016-10-15T01:57:01.593Z,0
2016-10-15T01:58:14.625Z,0
2016-10-15T01:59:27.535Z,0
2016-10-15T02:00:39.995Z,0
2016-10-15T02:01:52.952Z,0
2016-10-15T02:03:06.430Z,0
2016-10-15T02:04:19.517Z,0
2016-10-15T02:05:33.015Z,0
2016-10-15T02:06:46.560Z,0
2016-10-15T02:07:59.507Z,0
2016-10-15T02:09:13.074Z,0
2016-10-15T02:10:25.413Z,0
2016-10-15T02:11:37.282Z,0
2016-10-15T02:12:50.168Z,0
2016-10-15T02:14:03.609Z,0
2016-10-15T02:15:17.238Z,0
2016-10-15T02:16:30.141Z,0
2016-10-15T02:17:43.125Z,0
2016-10-15T02:18:55.622Z,0
2016-10-15T02:20:09.230Z,0
2016-10-15T02:21:22.675Z,0
2016-10-15T02:22:36.147Z,0
2016-10-15T02:23:49.147Z,0
2016-10-15T02:25:02.080Z,0
2016-10-15T02:26:14.656Z,0
2016-10-15T02:27:27.110Z,0
2016-10-15T02:28:40.548Z,0
2016-10-15T02:29:53.567Z,0
2016-10-15T02:31:06.663Z,0
2016-10-15T02:32:19.621Z,0
2016-10-15T02:33:33.147Z,0
2016-10-15T02:34:46.689Z,0
2016-10-15T02:35:59.078Z,0
2016-10-15T02:37:12.646Z,0
2016-10-15T02:38:26.150Z,0
2016-10-15T02:39:39.638Z,0
2016-10-15T02:40:53.056Z,0
2016-10-15T02:42:05.454Z,0
2016-10-15T02:43:18.427Z,0
2016-10-15T02:44:30.891Z,0
2016-10-15T02:45:43.881Z,0
2016-10-15T02:46:57.391Z,0
2016-10-15T02:48:10.928Z,0
2016-10-15T02:49:24.430Z,0
2016-10-15T02:50:37.078Z,0
2016-10-15T02:51:50.103Z,0
2016-10-15T02:53:03.815Z,0
2016-10-15T02:54:15.761Z,0
2016-10-15T02:55:28.183Z,0
2016-10-15T02:56:41.704Z,0
2016-10-15T02:57:55.167Z,0
2016-10-15T02:59:07.617Z,0
2016-10-15T03:00:20.595Z,0
2016-10-15T03:01:33.563Z,0
2016-10-15T03:02:47.026Z,0
2016-10-15T03:04:00.074Z,0
2016-10-15T03:05:13.583Z,0
2016-10-15T03:06:25.991Z,0
2016-10-15T03:07:39.434Z,0
2016-10-15T03:08:51.866Z,0
2016-10-15T03:10:04.916Z,0
2016-10-15T03:11:17.903Z,0
2016-10-15T03:12:30.785Z,0
2016-10-15T03:13:43.703Z,0
2016-10-15T03:14:58.005Z,0
2016-10-15T03:16:11.946Z,0
2016-10-15T03:17:24.941Z,0
2016-10-15T03:18:38.462Z,0
2016-10-15T03:19:51.378Z,0
2016-10-15T03:21:03.379Z,0
2016-10-15T03:22:16.387Z,0
2016-10-15T03:23:29.265Z,0
2016-10-15T03:24:42.801Z,0
2016-10-15T03:25:55.799Z,0
2016-10-15T03:27:08.257Z,0
2016-10-15T03:28:21.407Z,0
2016-10-15T03:29:33.817Z,0
2016-10-15T03:30:46.780Z,0
2016-10-15T03:32:00.402Z,0
2016-10-15T03:33:12.840Z,0
2016-10-15T03:34:25.317Z,0
2016-10-15T03:35:38.806Z,0
2016-10-15T03:36:51.899Z,0
2016-10-15T03:38:05.424Z,0
2016-10-15T03:39:17.843Z,0
2016-10-15T03:40:31.299Z,0
2016-10-15T03:41:44.285Z,0
2016-10-15T03:42:57.325Z,0
2016-10-15T03:44:09.785Z,0
2016-10-15T03:45:22.756Z,0
2016-10-15T03:46:36.230Z,0
2016-10-15T03:47:48.855Z,0
2016-10-15T03:49:01.887Z,0
2016-10-15T03:50:14.846Z,0
2016-10-15T03:51:28.304Z,0
2016-10-15T03:52:41.305Z,0
2016-10-15T03:53:54.376Z,0
2016-10-15T03:55:07.362Z,0
2016-10-15T03:56:20.872Z,0
2016-10-15T03:57:33.292Z,0
2016-10-15T03:58:45.692Z,0
2016-10-15T03:59:59.175Z,0
2016-10-15T04:01:12.084Z,0
2016-10-15T04:02:25.042Z,0
2016-10-15T04:03:38.489Z,0
2016-10-15T04:04:52.107Z,0
2016-10-15T04:06:04.532Z,0
2016-10-15T04:07:17.470Z,0
2016-10-15T04:08:30.930Z,0
2016-10-15T04:09:43.932Z,0
2016-10-15T04:10:56.281Z,0
2016-10-15T04:12:08.740Z,0
2016-10-15T04:13:22.294Z,0
2016-10-15T04:14:35.851Z,0
2016-10-15T04:15:48.925Z,0
2016-10-15T04:17:01.923Z,0
2016-10-15T04:18:15.368Z,0
2016-10-15T04:19:28.892Z,0
2016-10-15T04:20:41.797Z,0
2016-10-15T04:21:55.244Z,0
2016-10-15T04:23:08.740Z,0
2016-10-15T04:24:22.216Z,0
2016-10-15T04:25:35.664Z,0
2016-10-15T04:26:48.719Z,0
2016-10-15T04:28:01.124Z,0
2016-10-15T04:29:14.626Z,0
2016-10-15T04:30:28.070Z,0
2016-10-15T04:31:40.011Z,0
2016-10-15T04:32:52.463Z,0
2016-10-15T04:34:05.960Z,0
2016-10-15T04:35:17.825Z,0
2016-10-15T04:36:31.350Z,0
2016-10-15T04:37:43.913Z,0
2016-10-15T04:38:56.837Z,0
2016-10-15T04:40:09.752Z,0
2016-10-15T04:41:22.155Z,0
2016-10-15T04:42:35.195Z,0
2016-10-15T04:43:48.172Z,0
2016-10-15T04:45:01.679Z,0
2016-10-15T04:46:14.608Z,0
2016-10-15T04:47:26.563Z,0
2016-10-15T04:48:39.623Z,0
2016-10-15T04:49:52.553Z,0
2016-10-15T04:51:04.978Z,0
2016-10-15T04:52:18.170Z,0
2016-10-15T04:53:31.127Z,0
2016-10-15T04:54:44.112Z,0
2016-10-15T04:55:56.571Z,0
2016-10-15T04:57:09.594Z,0
2016-10-15T04:58:22.001Z,0
2016-10-15T04:59:35.567Z,0
2016-10-15T05:00:47.931Z,0
2016-10-15T05:02:00.957Z,0
2016-10-15T05:03:14.438Z,0
2016-10-15T05:04:27.938Z,0
2016-10-15T05:05:40.906Z,0
2016-10-15T05:06:53.915Z,0
2016-10-15T05:08:06.876Z,0
2016-10-15T05:09:20.288Z,0
2016-10-15T05:10:33.915Z,0
2016-10-15T05:11:47.473Z,0
2016-10-15T05:12:59.873Z,0
2016-10-15T05:14:11.741Z,0
2016-10-15T05:15:24.744Z,0
2016-10-15T05:16:37.248Z,0
2016-10-15T05:17:49.683Z,0
2016-10-15T05:19:02.799Z,0
2016-10-15T05:20:15.829Z,0
2016-10-15T05:21:28.312Z,0
2016-10-15T05:22:41.759Z,0
2016-10-15T05:23:54.665Z,0
2016-10-15T05:25:07.623Z,0
2016-10-15T05:26:20.072Z,0
2016-10-15T05:27:33.570Z,0
2016-10-15T05:28:46.504Z,0
2016-10-15T05:29:59.408Z,0
2016-10-15T05:31:11.873Z,0
2016-10-15T05:32:24.894Z,0
2016-10-15T05:33:37.860Z,0
2016-10-15T05:34:51.263Z,0
2016-10-15T05:36:04.746Z,0
2016-10-15T05:37:17.813Z,0
2016-10-15T05:38:31.369Z,0
2016-10-15T05:39:43.853Z,0
2016-10-15T05:40:56.835Z,0
2016-10-15T05:42:10.366Z,0
2016-10-15T05:43:22.927Z,0
2016-10-15T05:44:36.018Z,0
2016-10-15T05:45:49.017Z,0
2016-10-15T05:47:01.479Z,0
2016-10-15T05:48:14.413Z,0
2016-10-15T05:49:26.821Z,0
2016-10-15T05:50:39.791Z,0
2016-10-15T05:51:53.218Z,0
2016-10-15T05:53:06.159Z,0
2016-10-15T05:54:19.809Z,0
2016-10-15T05:55:33.250Z,0
2016-10-15T05:56:45.679Z,0
2016-10-15T05:57:58.598Z,0
2016-10-15T05:59:11.491Z,0
2016-10-15T06:00:23.936Z,0
2016-10-15T06:01:37.426Z,0
2016-10-15T06:02:50.419Z,0
2016-10-15T06:04:04.031Z,0
2016-10-15T06:05:17.096Z,0
2016-10-15T06:06:29.509Z,0
2016-10-15T06:07:41.903Z,0
2016-10-15T06:08:55.404Z,0
2016-10-15T06:10:13.146Z,0
2016-10-15T06:11:26.736Z,0
2016-10-15T06:12:39.842Z,0
2016-10-15T06:13:52.838Z,0
2016-10-15T06:15:05.288Z,0
2016-10-15T06:16:17.656Z,0
2016-10-15T06:17:29.617Z,0
2016-10-15T06:18:42.373Z,0
2016-10-15T06:19:54.863Z,0
2016-10-15T06:21:08.167Z,0
2016-10-15T06:22:20.654Z,0
2016-10-15T06:23:34.155Z,0
2016-10-15T06:24:47.073Z,0
2016-10-15T06:25:59.626Z,0
2016-10-15T06:27:12.669Z,0
2016-10-15T06:28:25.702Z,0
2016-10-15T06:29:38.672Z,0
2016-10-15T06:30:52.166Z,0
2016-10-15T06:32:05.093Z,0
2016-10-15T06:33:17.208Z,0
2016-10-15T06:34:29.655Z,0
2016-10-15T06:35:43.123Z,0
2016-10-15T06:36:55.063Z,0
2016-10-15T06:38:08.596Z,0
2016-10-15T06:39:20.549Z,0
2016-10-15T06:40:34.044Z,0
2016-10-15T06:41:46.403Z,0
2016-10-15T06:43:00.761Z,0
2016-10-15T06:44:15.139Z,0
2016-10-15T06:45:28.128Z,0
2016-10-15T06:46:40.629Z,0
2016-10-15T06:47:54.172Z,0
2016-10-15T06:49:06.068Z,0
2016-10-15T06:50:18.516Z,0
2016-10-15T06:51:31.485Z,0
2016-10-15T06:52:45.007Z,0
2016-10-15T06:53:58.638Z,0
2016-10-15T06:55:11.578Z,0
2016-10-15T06:56:25.062Z,0
2016-10-15T06:57:38.631Z,0
2016-10-15T06:58:51.081Z,0
2016-10-15T07:00:05.639Z,0
2016-10-15T07:01:21.106Z,0
2016-10-15T07:02:33.560Z,0
2016-10-15T07:03:46.541Z,0
2016-10-15T07:04:59.085Z,0
2016-10-15T07:06:12.051Z,0
2016-10-15T07:07:25.213Z,0
2016-10-15T07:08:38.153Z,0
2016-10-15T07:09:51.266Z,0
2016-10-15T07:11:04.266Z,0
2016-10-15T07:12:16.736Z,0
2016-10-15T07:13:29.673Z,0
2016-10-15T07:14:42.093Z,0
2016-10-15T07:15:55.242Z,0
2016-10-15T07:17:08.220Z,0
2016-10-15T07:18:21.693Z,0
2016-10-15T07:19:35.190Z,0
2016-10-15T07:20:47.666Z,0
2016-10-15T07:22:00.362Z,0
2016-10-15T07:23:13.342Z,0
2016-10-15T07:24:26.759Z,0
2016-10-15T07:25:38.668Z,0
2016-10-15T07:26:51.131Z,0
2016-10-15T07:28:03.621Z,0
2016-10-15T07:29:16.539Z,0
2016-10-15T07:30:30.059Z,0
2016-10-15T07:31:43.069Z,0
2016-10-15T07:32:56.584Z,0
2016-10-15T07:34:10.113Z,0
2016-10-15T07:35:23.034Z,0
2016-10-15T07:36:36.618Z,0
2016-10-15T07:37:50.069Z,0
2016-10-15T07:39:02.535Z,0
2016-10-15T07:40:13.925Z,0
2016-10-15T07:41:26.896Z,0
2016-10-15T07:42:38.952Z,0
2016-10-15T07:43:52.456Z,0
2016-10-15T07:45:05.972Z,0
2016-10-15T07:46:18.927Z,0
2016-10-15T07:47:32.465Z,0
2016-10-15T07:48:45.980Z,0
2016-10-15T07:49:59.456Z,0
2016-10-15T07:51:12.444Z,0
2016-10-15T07:52:24.924Z,0
2016-10-15T07:53:36.924Z,0
2016-10-15T07:54:49.389Z,0
2016-10-15T07:56:02.324Z,0
2016-10-15T07:57:15.808Z,0
2016-10-15T07:58:28.789Z,0
2016-10-15T07:59:41.720Z,0
2016-10-15T08:00:54.639Z,0
2016-10-15T08:02:08.077Z,0
2016-10-15T08:03:21.590Z,0
2016-10-15T08:04:34.137Z,0
2016-10-15T08:05:47.116Z,0
2016-10-15T08:07:00.683Z,0
2016-10-15T08:08:13.687Z,0
2016-10-15T08:09:26.166Z,0
2016-10-15T08:10:39.241Z,0
2016-10-15T08:11:52.812Z,0
2016-10-15T08:13:06.310Z,0
2016-10-15T08:14:19.760Z,4
2016-10-15T08:15:33.393Z,0
2016-10-15T08:16:46.961Z,4
2016-10-15T08:17:59.949Z,0
2016-10-15T08:19:13.438Z,4
2016-10-15T08:20:26.998Z,4
2016-10-15T08:21:39.460Z,8
2016-10-15T08:22:52.915Z,12
2016-10-15T08:24:05.799Z,16
2016-10-15T08:25:19.237Z,20
2016-10-15T08:26:31.790Z,28
2016-10-15T08:27:45.287Z,36
2016-10-15T08:28:58.203Z,60
2016-10-15T08:30:10.130Z,72
2016-10-15T08:31:22.042Z,84
2016-10-15T08:32:35.087Z,88
2016-10-15T08:33:47.013Z,104
2016-10-15T08:35:00.500Z,120
2016-10-15T08:36:12.936Z,136
2016-10-15T08:37:25.505Z,156
2016-10-15T08:38:37.935Z,168
2016-10-15T08:39:49.855Z,188
2016-10-15T08:41:03.389Z,220
2016-10-15T08:42:16.886Z,244
2016-10-15T08:43:29.896Z,260
2016-10-15T08:44:42.348Z,300
2016-10-15T08:45:55.822Z,348
2016-10-15T08:47:08.775Z,372
2016-10-15T08:48:21.817Z,412
2016-10-15T08:49:34.897Z,464
2016-10-15T08:50:48.354Z,496
2016-10-15T08:52:01.920Z,524
2016-10-15T08:53:14.956Z,576
2016-10-15T08:54:27.838Z,656
2016-10-15T08:55:40.844Z,736
2016-10-15T08:56:53.789Z,796
2016-10-15T08:58:06.762Z,856
2016-10-15T08:59:19.391Z,936
2016-10-15T09:00:31.864Z,1064
2016-10-15T09:01:44.784Z,1152
2016-10-15T09:02:57.252Z,1236
2016-10-15T09:04:10.733Z,1328
2016-10-15T09:05:24.227Z,1444
2016-10-15T09:06:37.790Z,1552
2016-10-15T09:07:51.210Z,1660
2016-10-15T09:09:04.816Z,1772
2016-10-15T09:10:18.428Z,1876
2016-10-15T09:11:31.434Z,1944
2016-10-15T09:12:43.860Z,1944
2016-10-15T09:13:56.316Z,1896
2016-10-15T09:15:08.192Z,1888
2016-10-15T09:16:21.326Z,1944
2016-10-15T09:17:33.797Z,2008
2016-10-15T09:18:46.253Z,2204
2016-10-15T09:19:59.753Z,2388
2016-10-15T09:21:13.385Z,2448
2016-10-15T09:22:26.822Z,2468
2016-10-15T09:23:40.206Z,2600
2016-10-15T09:24:53.214Z,2752
2016-10-15T09:26:06.316Z,2844
2016-10-15T09:27:18.772Z,2952
2016-10-15T09:28:31.689Z,3104
2016-10-15T09:29:44.664Z,3256
2016-10-15T09:30:57.594Z,3340
2016-10-15T09:32:10.615Z,3440
2016-10-15T09:33:22.530Z,3552
2016-10-15T09:34:35.478Z,3720
2016-10-15T09:35:48.456Z,3872
2016-10-15T09:37:00.880Z,4184
2016-10-15T09:38:13.529Z,4780
2016-10-15T09:39:27.032Z,5380
2016-10-15T09:40:39.999Z,6420
2016-10-15T09:41:53.512Z,7740
2016-10-15T09:43:06.654Z,8532
2016-10-15T09:44:19.593Z,8696
2016-10-15T09:45:33.023Z,8988
2016-10-15T09:46:46.099Z,9344
2016-10-15T09:47:59.665Z,9668
2016-10-15T09:49:12.635Z,9580
2016-10-15T09:50:25.645Z,9896
2016-10-15T09:51:38.669Z,9940
2016-10-15T09:52:51.569Z,9920
2016-10-15T09:54:03.761Z,9708
2016-10-15T09:55:16.738Z,9076
2016-10-15T09:56:29.659Z,9376
2016-10-15T09:57:42.684Z,9144
2016-10-15T09:58:56.181Z,9096
2016-10-15T10:00:08.576Z,10628
2016-10-15T10:01:21.606Z,10792
2016-10-15T10:02:34.033Z,10752
2016-10-15T10:03:47.524Z,10908
2016-10-15T10:05:00.618Z,10636
2016-10-15T10:06:13.565Z,10408
2016-10-15T10:07:27.050Z,9984
2016-10-15T10:08:40.028Z,9936
2016-10-15T10:09:53.153Z,9648
2016-10-15T10:11:06.634Z,9732
2016-10-15T10:12:19.125Z,9928
2016-10-15T10:13:32.089Z,9772
2016-10-15T10:14:45.062Z,9352
2016-10-15T10:15:57.075Z,9100
2016-10-15T10:17:08.983Z,9148
2016-10-15T10:18:22.484Z,9072
2016-10-15T10:19:34.872Z,9460
2016-10-15T10:20:48.374Z,9724
2016-10-15T10:22:01.864Z,9032
2016-10-15T10:23:15.395Z,8544
2016-10-15T10:24:27.811Z,8904
2016-10-15T10:25:41.471Z,9568
2016-10-15T10:26:53.983Z,10128
2016-10-15T10:28:06.954Z,10428
2016-10-15T10:29:19.884Z,10444
2016-10-15T10:30:32.861Z,10552
2016-10-15T10:31:46.394Z,10548
2016-10-15T10:32:59.397Z,10972
2016-10-15T10:34:12.376Z,11044
2016-10-15T10:35:25.337Z,11436
2016-10-15T10:36:38.841Z,12284
2016-10-15T10:37:51.856Z,12180
2016-10-15T10:39:04.796Z,11564
2016-10-15T10:40:17.750Z,11008
2016-10-15T10:41:31.243Z,10380
2016-10-15T10:42:44.365Z,10348
2016-10-15T10:43:57.340Z,10916
2016-10-15T10:45:10.787Z,11388
2016-10-15T10:46:23.163Z,11408
2016-10-15T10:47:36.164Z,11164
2016-10-15T10:48:49.932Z,10908
2016-10-15T10:50:03.446Z,10868
2016-10-15T10:51:16.346Z,11256
2016-10-15T10:52:29.459Z,11264
2016-10-15T10:53:42.951Z,11200
2016-10-15T10:54:56.159Z,11496
2016-10-15T10:56:09.070Z,11704
2016-10-15T10:57:22.524Z,12692
2016-10-15T10:58:34.998Z,13972
2016-10-15T10:59:47.558Z,14052
2016-10-15T11:01:01.075Z,13796
2016-10-15T11:02:14.590Z,13608
2016-10-15T11:03:27.046Z,13224
2016-10-15T11:04:40.157Z,12760
2016-10-15T11:05:53.160Z,13304
2016-10-15T11:07:06.698Z,14256
2016-10-15T11:08:19.688Z,15536
2016-10-15T11:09:33.205Z,16960
2016-10-15T11:10:46.750Z,17536
2016-10-15T11:11:59.711Z,16232
2016-10-15T11:13:12.094Z,15360
2016-10-15T11:14:25.616Z,14644
2016-10-15T11:15:38.655Z,14772
2016-10-15T11:16:52.189Z,15044
2016-10-15T11:18:05.205Z,14972
2016-10-15T11:19:18.678Z,14688
2016-10-15T11:20:31.079Z,14568
2016-10-15T11:21:44.721Z,15124
2016-10-15T11:22:58.179Z,15056
2016-10-15T11:24:11.744Z,15036
2016-10-15T11:25:24.736Z,15140
2016-10-15T11:26:37.758Z,15868
2016-10-15T11:27:51.231Z,15920
2016-10-15T11:29:04.237Z,16028
2016-10-15T11:30:16.325Z,16136
2016-10-15T11:31:29.349Z,16060
2016-10-15T11:32:41.937Z,15832
2016-10-15T11:33:54.327Z,15540
2016-10-15T11:35:07.276Z,15412
2016-10-15T11:36:20.739Z,15828
2016-10-15T11:37:33.162Z,16472
2016-10-15T11:38:46.729Z,17472
2016-10-15T11:39:59.959Z,17856
2016-10-15T11:41:13.480Z,17440
2016-10-15T11:42:27.162Z,17568
2016-10-15T11:43:40.789Z,17696
2016-10-15T11:44:52.745Z,18368
2016-10-15T11:46:05.154Z,19040
2016-10-15T11:47:18.646Z,19648
2016-10-15T11:48:31.611Z,19296
2016-10-15T11:49:44.017Z,18240
2016-10-15T11:50:56.486Z,17664
2016-10-15T11:52:08.341Z,16800
2016-10-15T11:53:21.352Z,17088
2016-10-15T11:54:34.470Z,18112
2016-10-15T11:55:46.914Z,17632
2016-10-15T11:57:00.402Z,16960
2016-10-15T11:58:12.844Z,16024
2016-10-15T11:59:25.310Z,14396
2016-10-15T12:00:38.294Z,14648
2016-10-15T12:01:50.752Z,15428
2016-10-15T12:03:02.663Z,11032
2016-10-15T12:04:15.633Z,16080
2016-10-15T12:05:29.227Z,16232
2016-10-15T12:06:42.667Z,17056
2016-10-15T12:07:56.145Z,17728
2016-10-15T12:09:09.706Z,17728
2016-10-15T12:10:22.138Z,16004
2016-10-15T12:11:34.097Z,17600
2016-10-15T12:12:46.514Z,17568
2016-10-15T12:14:00.006Z,17600
2016-10-15T12:15:12.967Z,17600
2016-10-15T12:16:26.044Z,18304
2016-10-15T12:17:38.408Z,19360
2016-10-15T12:18:51.923Z,20544
2016-10-15T12:20:04.387Z,20640
2016-10-15T12:21:17.412Z,20096
2016-10-15T12:22:30.381Z,20864
2016-10-15T12:23:43.287Z,21696
2016-10-15T12:24:56.276Z,22176
2016-10-15T12:26:09.236Z,22496
2016-10-15T12:27:22.292Z,22368
2016-10-15T12:28:35.349Z,22688
2016-10-15T12:29:48.894Z,22816
2016-10-15T12:31:01.858Z,22592
2016-10-15T12:32:15.463Z,21024
2016-10-15T12:33:28.965Z,21440
2016-10-15T12:34:42.483Z,23200
2016-10-15T12:35:55.084Z,25536
2016-10-15T12:37:08.557Z,26816
2016-10-15T12:38:21.613Z,27264
2016-10-15T12:39:34.549Z,27168
2016-10-15T12:40:47.017Z,23904
2016-10-15T12:41:59.394Z,21984
2016-10-15T12:43:12.901Z,21440
2016-10-15T12:44:26.432Z,20352
2016-10-15T12:45:39.921Z,21280
2016-10-15T12:46:53.407Z,19936
2016-10-15T12:48:06.936Z,21408
2016-10-15T12:49:20.051Z,21824
2016-10-15T12:50:33.589Z,21312
2016-10-15T12:51:45.456Z,19424
2016-10-15T12:52:58.123Z,19488
2016-10-15T12:54:11.797Z,18272
2016-10-15T12:55:24.752Z,19264
2016-10-15T12:56:37.726Z,20000
2016-10-15T12:57:50.658Z,21024
2016-10-15T12:59:03.592Z,23424
2016-10-15T13:00:15.606Z,24096
2016-10-15T13:01:29.105Z,25088
2016-10-15T13:02:41.001Z,25184
2016-10-15T13:03:54.501Z,25376
2016-10-15T13:05:07.096Z,21408
2016-10-15T13:06:20.604Z,24160
2016-10-15T13:07:34.131Z,25184
2016-10-15T13:08:46.553Z,24704
2016-10-15T13:10:00.083Z,24480
2016-10-15T13:11:12.620Z,24064
2016-10-15T13:12:26.097Z,25632
2016-10-15T13:13:38.558Z,26176
2016-10-15T13:14:51.586Z,26752
2016-10-15T13:16:05.380Z,25760
2016-10-15T13:17:18.308Z,21728
2016-10-15T13:18:30.747Z,20992
2016-10-15T13:19:43.180Z,24736
2016-10-15T13:20:56.139Z,24160
2016-10-15T13:22:09.214Z,25248
2016-10-15T13:23:22.294Z,22624
2016-10-15T13:24:35.235Z,21728
2016-10-15T13:25:48.227Z,20160
2016-10-15T13:27:00.912Z,21056
2016-10-15T13:28:14.408Z,24096
2016-10-15T13:29:28.171Z,22560
2016-10-15T13:30:41.136Z,21920
2016-10-15T13:31:54.606Z,22176
2016-10-15T13:33:07.630Z,24576
2016-10-15T13:34:20.656Z,18432
2016-10-15T13:35:33.616Z,17492
2016-10-15T13:36:47.128Z,25440
2016-10-15T13:38:00.076Z,26784
2016-10-15T13:39:12.960Z,27584
2016-10-15T13:40:26.405Z,26720
2016-10-15T13:41:39.404Z,26720
2016-10-15T13:42:53.005Z,27552
2016-10-15T13:44:06.133Z,26848
2016-10-15T13:45:19.616Z,26112
2016-10-15T13:46:32.636Z,24608
2016-10-15T13:47:45.083Z,26112
2016-10-15T13:48:58.571Z,27648
2016-10-15T13:50:12.036Z,28512
2016-10-15T13:51:24.992Z,29408
2016-10-15T13:52:37.904Z,29824
2016-10-15T13:53:51.427Z,29888
2016-10-15T13:55:03.982Z,29376
2016-10-15T13:56:16.987Z,29472
2016-10-15T13:57:30.444Z,28672
2016-10-15T13:58:43.402Z,28032
2016-10-15T13:59:56.856Z,26944
2016-10-15T14:01:09.760Z,25728
2016-10-15T14:02:22.838Z,27072
2016-10-15T14:03:36.374Z,27040
2016-10-15T14:04:48.740Z,28384
2016-10-15T14:06:02.311Z,28864
2016-10-15T14:07:15.222Z,29056
2016-10-15T14:08:27.666Z,30048
2016-10-15T14:09:41.454Z,30336
2016-10-15T14:10:54.536Z,30528
2016-10-15T14:12:07.476Z,30624
2016-10-15T14:13:20.599Z,30592
2016-10-15T14:14:33.623Z,31520
2016-10-15T14:15:46.588Z,31968
2016-10-15T14:17:00.175Z,33088
2016-10-15T14:18:13.659Z,33088
2016-10-15T14:19:26.084Z,34624
2016-10-15T14:20:39.526Z,32288
2016-10-15T14:21:52.937Z,31264
2016-10-15T14:23:05.378Z,32352
2016-10-15T14:24:18.765Z,34944
2016-10-15T14:25:32.242Z,34848
2016-10-15T14:26:44.685Z,32736
2016-10-15T14:27:57.733Z,33568
2016-10-15T14:29:09.715Z,31872
2016-10-15T14:30:22.650Z,29376
2016-10-15T14:31:35.570Z,33024
2016-10-15T14:32:49.024Z,35744
2016-10-15T14:34:02.629Z,38720
2016-10-15T14:35:14.992Z,34528
2016-10-15T14:36:27.347Z,28576
2016-10-15T14:37:39.807Z,37632
2016-10-15T14:38:52.816Z,39904
2016-10-15T14:40:05.802Z,41408
2016-10-15T14:41:17.688Z,45728
2016-10-15T14:42:31.102Z,22112
2016-10-15T14:43:44.619Z,22720
2016-10-15T14:44:58.038Z,44384
2016-10-15T14:46:10.904Z,44320
2016-10-15T14:47:22.853Z,43776
2016-10-15T14:48:35.970Z,42656
2016-10-15T14:49:49.541Z,41920
2016-10-15T14:51:02.971Z,41024
2016-10-15T14:52:16.371Z,41856
2016-10-15T14:53:28.956Z,43072
2016-10-15T14:54:41.378Z,43776
2016-10-15T14:55:54.332Z,43040
2016-10-15T14:57:06.720Z,43456
2016-10-15T14:58:18.100Z,42912
2016-10-15T14:59:31.573Z,43040
2016-10-15T15:00:45.108Z,43328
2016-10-15T15:01:58.566Z,44064
2016-10-15T15:03:10.407Z,44672
2016-10-15T15:04:22.273Z,45888
2016-10-15T15:05:34.630Z,46304
2016-10-15T15:06:47.574Z,48224
2016-10-15T15:08:00.504Z,48768
2016-10-15T15:09:13.422Z,41600
2016-10-15T15:10:25.836Z,47264
2016-10-15T15:11:38.881Z,47232
2016-10-15T15:12:52.342Z,49120
2016-10-15T15:14:05.784Z,47584
2016-10-15T15:15:18.181Z,45728
2016-10-15T15:16:30.019Z,24544
2016-10-15T15:17:43.499Z,36544
2016-10-15T15:18:56.415Z,18464
2016-10-15T15:20:08.836Z,19616
2016-10-15T15:21:22.340Z,23296
2016-10-15T15:22:35.883Z,25088
2016-10-15T15:23:49.299Z,32544
2016-10-15T15:25:01.669Z,31168
2016-10-15T15:26:15.109Z,27744
2016-10-15T15:27:27.499Z,33088
2016-10-15T15:28:39.898Z,26496
2016-10-15T15:29:53.320Z,50720
2016-10-15T15:31:06.328Z,25888
2016-10-15T15:32:19.295Z,32096
2016-10-15T15:33:32.811Z,52416
2016-10-15T15:34:45.190Z,50816
2016-10-15T15:35:57.591Z,40192
2016-10-15T15:37:09.983Z,24064
2016-10-15T15:38:22.972Z,19840
2016-10-15T15:39:35.851Z,18880
2016-10-15T15:40:48.824Z,18720
2016-10-15T15:42:01.204Z,19744
2016-10-15T15:43:14.244Z,22240
2016-10-15T15:44:27.331Z,24256
2016-10-15T15:45:40.265Z,25792
2016-10-15T15:46:52.654Z,24480
2016-10-15T15:48:05.086Z,26400
2016-10-15T15:49:17.982Z,35520
2016-10-15T15:50:29.895Z,24384
2016-10-15T15:51:42.821Z,25152
2016-10-15T15:52:55.260Z,30816
2016-10-15T15:54:07.648Z,29088
2016-10-15T15:55:21.250Z,23968
2016-10-15T15:56:34.624Z,21088
2016-10-15T15:57:47.003Z,20960
2016-10-15T15:58:59.855Z,21856
2016-10-15T16:00:12.910Z,22560
2016-10-15T16:01:25.820Z,23008
2016-10-15T16:02:39.301Z,23232
2016-10-15T16:03:52.150Z,21440
2016-10-15T16:05:05.091Z,41984
2016-10-15T16:06:17.629Z,16208
2016-10-15T16:07:30.524Z,15300
2016-10-15T16:08:42.964Z,15116
2016-10-15T16:09:55.879Z,14512
2016-10-15T16:11:08.772Z,14696
2016-10-15T16:12:21.643Z,15656
2016-10-15T16:13:34.543Z,17152
2016-10-15T16:14:46.930Z,18944
2016-10-15T16:16:00.451Z,20416
2016-10-15T16:17:12.912Z,20960
2016-10-15T16:18:25.344Z,23168
2016-10-15T16:19:38.252Z,29568
2016-10-15T16:20:50.157Z,26208
2016-10-15T16:22:03.115Z,31264
2016-10-15T16:23:16.051Z,38016
2016-10-15T16:24:28.457Z,30016
2016-10-15T16:25:41.415Z,43872
2016-10-15T16:26:54.791Z,51616
2016-10-15T16:28:08.285Z,38368
2016-10-15T16:29:21.661Z,55040
2016-10-15T16:30:35.067Z,55872
2016-10-15T16:31:48.535Z,58496
2016-10-15T16:33:01.974Z,55808
2016-10-15T16:34:15.540Z,57216
2016-10-15T16:35:27.956Z,48256
2016-10-15T16:36:40.883Z,26496
2016-10-15T16:37:53.850Z,25952
2016-10-15T16:39:06.301Z,30720
2016-10-15T16:40:19.231Z,23200
2016-10-15T16:41:32.219Z,23712
2016-10-15T16:42:45.185Z,26592
2016-10-15T16:43:58.769Z,54080
2016-10-15T16:45:11.683Z,51040
2016-10-15T16:46:24.673Z,51168
2016-10-15T16:47:38.192Z,18816
2016-10-15T16:48:51.728Z,26944
2016-10-15T16:50:04.761Z,20384